Terminal Aerodrome Forecast
Issued by NWS

Home | Current Version | Previous Version | Text Only | Print | Product List | Glossary On
Versions: 1 2 3 4 5 6 7 8 9 10 11 12 13 14 15 16 17 18 19 20 21 22 23 24 25
479
FTUS43 KDVN 140740 AAA
TAFBRL
TAF AMD
KBRL 140740Z 1408/1506 12007KT 2SM -SN BR BKN023 OVC090
     FM141000 13013KT 5SM -SN BR OVC030
     FM141400 14015G22KT 1SM -SN BR OVC015
     FM141900 13011KT 5SM -SN BR OVC020
     FM142300 16006KT 6SM BR BKN015=

USA.gov is the U.S. government's official web portal to all federal, state and local government web resources and services.